sensor_id;sensor_type;location;lat;lon;timestamp;P1;durP1;ratioP1;P2;durP2;ratioP2
14396;SDS011;50653;47.810;13.022;2022-11-15T00:00:29;6.60;;;6.20;;
14396;SDS011;50653;47.810;13.022;2022-11-15T00:03:18;11.80;;;6.50;;
14396;SDS011;50653;47.810;13.022;2022-11-15T00:06:05;6.60;;;6.03;;
14396;SDS011;50653;47.810;13.022;2022-11-15T00:08:50;7.17;;;6.47;;
14396;SDS011;50653;47.810;13.022;2022-11-15T00:11:34;6.80;;;6.17;;
14396;SDS011;50653;47.810;13.022;2022-11-15T00:14:18;6.27;;;5.77;;
14396;SDS011;50653;47.810;13.022;2022-11-15T00:17:02;9.30;;;6.80;;
14396;SDS011;50653;47.810;13.022;2022-11-15T00:19:46;7.23;;;5.83;;
14396;SDS011;50653;47.810;13.022;2022-11-15T00:22:33;6.13;;;5.53;;
14396;SDS011;50653;47.810;13.022;2022-11-15T00:25:17;7.43;;;5.57;;
14396;SDS011;50653;47.810;13.022;2022-11-15T00:28:02;6.03;;;5.40;;
14396;SDS011;50653;47.810;13.022;2022-11-15T00:30:46;5.10;;;4.60;;
14396;SDS011;50653;47.810;13.022;2022-11-15T00:33:30;6.03;;;5.73;;
14396;SDS011;50653;47.810;13.022;2022-11-15T00:36:15;6.30;;;5.77;;
14396;SDS011;50653;47.810;13.022;2022-11-15T00:38:59;5.57;;;5.07;;
14396;SDS011;50653;47.810;13.022;2022-11-15T00:41:43;5.10;;;4.67;;
14396;SDS011;50653;47.810;13.022;2022-11-15T00:44:27;5.60;;;5.20;;
14396;SDS011;50653;47.810;13.022;2022-11-15T00:47:12;5.80;;;5.23;;
14396;SDS011;50653;47.810;13.022;2022-11-15T00:49:56;5.73;;;5.23;;
14396;SDS011;50653;47.810;13.022;2022-11-15T00:52:40;4.80;;;4.50;;
14396;SDS011;50653;47.810;13.022;2022-11-15T00:55:24;5.50;;;5.10;;
14396;SDS011;50653;47.810;13.022;2022-11-15T00:58:08;7.20;;;4.83;;
14396;SDS011;50653;47.810;13.022;2022-11-15T01:00:53;5.40;;;4.80;;
14396;SDS011;50653;47.810;13.022;2022-11-15T01:03:39;5.77;;;5.37;;
14396;SDS011;50653;47.810;13.022;2022-11-15T01:06:24;7.23;;;5.73;;
14396;SDS011;50653;47.810;13.022;2022-11-15T01:09:08;6.43;;;4.90;;
14396;SDS011;50653;47.810;13.022;2022-11-15T01:11:52;5.20;;;4.90;;
14396;SDS011;50653;47.810;13.022;2022-11-15T01:14:36;6.00;;;5.57;;
14396;SDS011;50653;47.810;13.022;2022-11-15T01:17:20;5.43;;;5.03;;
14396;SDS011;50653;47.810;13.022;2022-11-15T01:20:05;9.77;;;4.73;;
14396;SDS011;50653;47.810;13.022;2022-11-15T01:22:50;7.37;;;5.67;;
14396;SDS011;50653;47.810;13.022;2022-11-15T01:25:33;6.90;;;5.13;;
14396;SDS011;50653;47.810;13.022;2022-11-15T01:28:18;5.00;;;4.70;;
14396;SDS011;50653;47.810;13.022;2022-11-15T01:31:03;6.43;;;6.00;;
14396;SDS011;50653;47.810;13.022;2022-11-15T01:33:49;6.60;;;6.00;;
14396;SDS011;50653;47.810;13.022;2022-11-15T01:36:33;6.93;;;5.97;;
14396;SDS011;50653;47.810;13.022;2022-11-15T01:39:18;6.60;;;5.83;;
14396;SDS011;50653;47.810;13.022;2022-11-15T01:42:02;5.70;;;4.70;;
14396;SDS011;50653;47.810;13.022;2022-11-15T01:44:48;5.40;;;4.90;;
14396;SDS011;50653;47.810;13.022;2022-11-15T01:47:40;5.83;;;5.43;;
14396;SDS011;50653;47.810;13.022;2022-11-15T01:50:32;5.77;;;5.27;;
14396;SDS011;50653;47.810;13.022;2022-11-15T01:53:17;5.33;;;5.00;;
14396;SDS011;50653;47.810;13.022;2022-11-15T01:56:04;7.23;;;4.87;;
14396;SDS011;50653;47.810;13.022;2022-11-15T01:58:51;4.00;;;3.60;;
14396;SDS011;50653;47.810;13.022;2022-11-15T02:01:36;5.43;;;4.80;;
14396;SDS011;50653;47.810;13.022;2022-11-15T02:04:35;4.50;;;4.00;;
14396;SDS011;50653;47.810;13.022;2022-11-15T02:07:23;4.87;;;4.47;;
14396;SDS011;50653;47.810;13.022;2022-11-15T02:10:13;4.53;;;4.23;;
14396;SDS011;50653;47.810;13.022;2022-11-15T02:13:02;4.27;;;3.97;;
14396;SDS011;50653;47.810;13.022;2022-11-15T02:15:52;3.90;;;3.60;;
14396;SDS011;50653;47.810;13.022;2022-11-15T02:18:54;4.87;;;3.83;;
14396;SDS011;50653;47.810;13.022;2022-11-15T02:28:10;3.40;;;3.20;;
14396;SDS011;50653;47.810;13.022;2022-11-15T02:34:43;4.73;;;3.57;;
14396;SDS011;50653;47.810;13.022;2022-11-15T02:37:47;3.60;;;3.40;;
14396;SDS011;50653;47.810;13.022;2022-11-15T02:47:12;3.67;;;3.47;;
14396;SDS011;50653;47.810;13.022;2022-11-15T02:50:02;4.10;;;3.80;;
14396;SDS011;50653;47.810;13.022;2022-11-15T02:52:51;3.90;;;3.50;;
14396;SDS011;50653;47.810;13.022;2022-11-15T02:55:37;3.83;;;2.97;;
14396;SDS011;50653;47.810;13.022;2022-11-15T02:58:47;3.90;;;3.60;;
14396;SDS011;50653;47.810;13.022;2022-11-15T03:11:08;4.37;;;4.07;;
14396;SDS011;50653;47.810;13.022;2022-11-15T03:20:01;3.43;;;3.23;;
14396;SDS011;50653;47.810;13.022;2022-11-15T03:22:48;2.93;;;2.70;;
14396;SDS011;50653;47.810;13.022;2022-11-15T03:25:34;3.90;;;3.50;;
14396;SDS011;50653;47.810;13.022;2022-11-15T03:28:25;3.57;;;3.33;;
14396;SDS011;50653;47.810;13.022;2022-11-15T03:31:22;5.33;;;3.90;;
14396;SDS011;50653;47.810;13.022;2022-11-15T03:34:32;4.40;;;3.83;;
14396;SDS011;50653;47.810;13.022;2022-11-15T03:37:22;3.37;;;3.17;;
14396;SDS011;50653;47.810;13.022;2022-11-15T03:40:12;4.33;;;3.90;;
14396;SDS011;50653;47.810;13.022;2022-11-15T03:45:56;4.43;;;3.20;;
14396;SDS011;50653;47.810;13.022;2022-11-15T03:48:57;4.03;;;2.87;;
14396;SDS011;50653;47.810;13.022;2022-11-15T03:52:02;3.30;;;3.10;;
14396;SDS011;50653;47.810;13.022;2022-11-15T03:54:55;4.33;;;3.93;;
14396;SDS011;50653;47.810;13.022;2022-11-15T03:57:39;3.03;;;2.83;;
14396;SDS011;50653;47.810;13.022;2022-11-15T04:00:23;6.20;;;3.93;;
14396;SDS011;50653;47.810;13.022;2022-11-15T04:03:08;3.33;;;3.13;;
14396;SDS011;50653;47.810;13.022;2022-11-15T04:05:52;3.87;;;3.57;;
14396;SDS011;50653;47.810;13.022;2022-11-15T04:08:36;5.33;;;4.93;;
14396;SDS011;50653;47.810;13.022;2022-11-15T04:11:20;3.90;;;3.70;;
14396;SDS011;50653;47.810;13.022;2022-11-15T04:14:04;3.93;;;3.10;;
14396;SDS011;50653;47.810;13.022;2022-11-15T04:16:48;3.90;;;3.70;;
14396;SDS011;50653;47.810;13.022;2022-11-15T04:19:33;3.67;;;3.37;;
14396;SDS011;50653;47.810;13.022;2022-11-15T04:22:36;3.10;;;2.90;;
14396;SDS011;50653;47.810;13.022;2022-11-15T04:25:39;5.20;;;4.80;;
14396;SDS011;50653;47.810;13.022;2022-11-15T04:28:23;3.77;;;3.57;;
14396;SDS011;50653;47.810;13.022;2022-11-15T04:31:07;4.03;;;3.67;;
14396;SDS011;50653;47.810;13.022;2022-11-15T04:33:51;5.60;;;4.53;;
14396;SDS011;50653;47.810;13.022;2022-11-15T04:36:36;4.43;;;4.13;;
14396;SDS011;50653;47.810;13.022;2022-11-15T04:39:39;5.40;;;3.70;;
14396;SDS011;50653;47.810;13.022;2022-11-15T04:42:24;3.63;;;3.43;;
14396;SDS011;50653;47.810;13.022;2022-11-15T04:45:09;2.47;;;2.27;;
14396;SDS011;50653;47.810;13.022;2022-11-15T04:47:53;3.93;;;3.53;;
14396;SDS011;50653;47.810;13.022;2022-11-15T04:50:37;3.77;;;3.47;;
14396;SDS011;50653;47.810;13.022;2022-11-15T04:53:21;2.97;;;2.77;;
14396;SDS011;50653;47.810;13.022;2022-11-15T04:56:05;5.80;;;3.30;;
14396;SDS011;50653;47.810;13.022;2022-11-15T04:58:49;4.13;;;3.93;;
14396;SDS011;50653;47.810;13.022;2022-11-15T05:01:34;3.03;;;2.87;;
14396;SDS011;50653;47.810;13.022;2022-11-15T05:04:18;4.03;;;3.83;;
14396;SDS011;50653;47.810;13.022;2022-11-15T05:07:03;3.23;;;3.03;;
14396;SDS011;50653;47.810;13.022;2022-11-15T05:09:50;2.90;;;2.70;;
14396;SDS011;50653;47.810;13.022;2022-11-15T05:12:34;4.57;;;4.17;;
14396;SDS011;50653;47.810;13.022;2022-11-15T05:15:19;3.73;;;3.47;;
14396;SDS011;50653;47.810;13.022;2022-11-15T05:18:03;3.73;;;3.53;;
14396;SDS011;50653;47.810;13.022;2022-11-15T05:20:47;4.93;;;4.53;;
14396;SDS011;50653;47.810;13.022;2022-11-15T05:23:31;3.80;;;3.47;;
14396;SDS011;50653;47.810;13.022;2022-11-15T05:26:16;5.83;;;4.40;;
14396;SDS011;50653;47.810;13.022;2022-11-15T05:29:01;4.87;;;4.43;;
14396;SDS011;50653;47.810;13.022;2022-11-15T05:31:46;3.80;;;3.60;;
14396;SDS011;50653;47.810;13.022;2022-11-15T05:34:30;4.03;;;3.73;;
14396;SDS011;50653;47.810;13.022;2022-11-15T05:37:14;3.37;;;3.17;;
14396;SDS011;50653;47.810;13.022;2022-11-15T05:39:59;3.43;;;3.23;;
14396;SDS011;50653;47.810;13.022;2022-11-15T05:42:44;3.97;;;3.47;;
14396;SDS011;50653;47.810;13.022;2022-11-15T05:45:28;4.47;;;4.20;;
14396;SDS011;50653;47.810;13.022;2022-11-15T05:48:13;3.70;;;3.40;;
14396;SDS011;50653;47.810;13.022;2022-11-15T05:50:58;4.43;;;4.03;;
14396;SDS011;50653;47.810;13.022;2022-11-15T05:53:43;4.03;;;3.60;;
14396;SDS011;50653;47.810;13.022;2022-11-15T05:56:28;3.63;;;3.33;;
14396;SDS011;50653;47.810;13.022;2022-11-15T05:59:13;3.87;;;3.67;;
14396;SDS011;50653;47.810;13.022;2022-11-15T06:02:09;10.77;;;5.47;;
14396;SDS011;50653;47.810;13.022;2022-11-15T06:04:54;5.10;;;4.77;;
14396;SDS011;50653;47.810;13.022;2022-11-15T06:07:38;4.67;;;4.37;;
14396;SDS011;50653;47.810;13.022;2022-11-15T06:10:22;3.90;;;3.20;;
14396;SDS011;50653;47.810;13.022;2022-11-15T06:13:06;4.57;;;4.17;;
14396;SDS011;50653;47.810;13.022;2022-11-15T06:15:50;4.67;;;4.37;;
14396;SDS011;50653;47.810;13.022;2022-11-15T06:18:35;8.73;;;4.80;;
14396;SDS011;50653;47.810;13.022;2022-11-15T06:21:20;3.60;;;3.40;;
14396;SDS011;50653;47.810;13.022;2022-11-15T06:24:04;4.20;;;3.90;;
14396;SDS011;50653;47.810;13.022;2022-11-15T06:26:49;4.30;;;4.10;;
14396;SDS011;50653;47.810;13.022;2022-11-15T06:29:33;10.17;;;3.73;;
14396;SDS011;50653;47.810;13.022;2022-11-15T06:32:17;4.90;;;4.47;;
14396;SDS011;50653;47.810;13.022;2022-11-15T06:35:01;12.40;;;5.70;;
14396;SDS011;50653;47.810;13.022;2022-11-15T06:37:46;4.77;;;4.37;;
14396;SDS011;50653;47.810;13.022;2022-11-15T06:40:32;6.63;;;4.43;;
14396;SDS011;50653;47.810;13.022;2022-11-15T06:43:20;5.20;;;4.80;;
14396;SDS011;50653;47.810;13.022;2022-11-15T06:46:04;5.53;;;5.13;;
14396;SDS011;50653;47.810;13.022;2022-11-15T06:48:52;13.53;;;4.40;;
14396;SDS011;50653;47.810;13.022;2022-11-15T06:51:37;4.53;;;3.50;;
14396;SDS011;50653;47.810;13.022;2022-11-15T06:54:21;3.63;;;3.30;;
14396;SDS011;50653;47.810;13.022;2022-11-15T06:57:06;4.17;;;3.83;;
14396;SDS011;50653;47.810;13.022;2022-11-15T06:59:50;2.83;;;2.63;;
14396;SDS011;50653;47.810;13.022;2022-11-15T07:02:34;5.87;;;3.43;;
14396;SDS011;50653;47.810;13.022;2022-11-15T07:05:18;4.43;;;4.13;;
14396;SDS011;50653;47.810;13.022;2022-11-15T07:08:02;5.90;;;3.60;;
14396;SDS011;50653;47.810;13.022;2022-11-15T07:10:47;3.63;;;3.43;;
14396;SDS011;50653;47.810;13.022;2022-11-15T07:13:32;9.33;;;4.00;;
14396;SDS011;50653;47.810;13.022;2022-11-15T07:16:16;10.43;;;3.90;;
14396;SDS011;50653;47.810;13.022;2022-11-15T07:19:01;4.00;;;3.70;;
14396;SDS011;50653;47.810;13.022;2022-11-15T07:21:45;4.40;;;4.17;;
14396;SDS011;50653;47.810;13.022;2022-11-15T07:24:30;4.20;;;4.00;;
14396;SDS011;50653;47.810;13.022;2022-11-15T07:27:14;6.20;;;4.87;;
14396;SDS011;50653;47.810;13.022;2022-11-15T07:29:58;4.20;;;3.90;;
14396;SDS011;50653;47.810;13.022;2022-11-15T07:32:42;6.17;;;5.53;;
14396;SDS011;50653;47.810;13.022;2022-11-15T07:35:27;3.40;;;3.20;;
14396;SDS011;50653;47.810;13.022;2022-11-15T07:38:12;3.30;;;3.00;;
14396;SDS011;50653;47.810;13.022;2022-11-15T07:41:00;4.03;;;3.83;;
14396;SDS011;50653;47.810;13.022;2022-11-15T07:43:46;3.73;;;3.53;;
14396;SDS011;50653;47.810;13.022;2022-11-15T07:46:31;3.70;;;3.50;;
14396;SDS011;50653;47.810;13.022;2022-11-15T07:49:15;3.83;;;3.43;;
14396;SDS011;50653;47.810;13.022;2022-11-15T07:51:59;3.60;;;3.30;;
14396;SDS011;50653;47.810;13.022;2022-11-15T07:54:43;4.10;;;3.80;;
14396;SDS011;50653;47.810;13.022;2022-11-15T07:57:27;3.00;;;2.80;;
14396;SDS011;50653;47.810;13.022;2022-11-15T08:00:13;8.53;;;3.23;;
14396;SDS011;50653;47.810;13.022;2022-11-15T08:05:51;4.13;;;3.93;;
14396;SDS011;50653;47.810;13.022;2022-11-15T08:08:35;5.40;;;3.00;;
14396;SDS011;50653;47.810;13.022;2022-11-15T08:11:19;3.50;;;3.30;;
14396;SDS011;50653;47.810;13.022;2022-11-15T08:14:04;4.27;;;3.97;;
14396;SDS011;50653;47.810;13.022;2022-11-15T08:16:48;5.10;;;4.30;;
14396;SDS011;50653;47.810;13.022;2022-11-15T08:19:32;5.57;;;3.70;;
14396;SDS011;50653;47.810;13.022;2022-11-15T08:22:16;9.90;;;4.73;;
14396;SDS011;50653;47.810;13.022;2022-11-15T08:25:01;3.90;;;3.00;;
14396;SDS011;50653;47.810;13.022;2022-11-15T08:27:45;3.40;;;3.13;;
14396;SDS011;50653;47.810;13.022;2022-11-15T08:30:29;3.60;;;3.40;;
14396;SDS011;50653;47.810;13.022;2022-11-15T08:33:14;5.20;;;4.67;;
14396;SDS011;50653;47.810;13.022;2022-11-15T08:35:59;4.10;;;3.80;;
14396;SDS011;50653;47.810;13.022;2022-11-15T08:38:44;4.43;;;4.13;;
14396;SDS011;50653;47.810;13.022;2022-11-15T08:41:32;3.87;;;3.57;;
14396;SDS011;50653;47.810;13.022;2022-11-15T08:44:19;5.43;;;3.23;;
14396;SDS011;50653;47.810;13.022;2022-11-15T08:47:03;4.20;;;3.67;;
14396;SDS011;50653;47.810;13.022;2022-11-15T08:49:47;6.80;;;4.23;;
14396;SDS011;50653;47.810;13.022;2022-11-15T08:52:31;3.90;;;3.70;;
14396;SDS011;50653;47.810;13.022;2022-11-15T08:55:15;4.13;;;3.57;;
14396;SDS011;50653;47.810;13.022;2022-11-15T08:57:59;3.50;;;3.20;;
14396;SDS011;50653;47.810;13.022;2022-11-15T09:00:44;4.10;;;3.73;;
14396;SDS011;50653;47.810;13.022;2022-11-15T09:03:28;2.93;;;2.73;;
14396;SDS011;50653;47.810;13.022;2022-11-15T09:06:12;7.40;;;3.20;;
14396;SDS011;50653;47.810;13.022;2022-11-15T09:08:57;6.93;;;2.80;;
14396;SDS011;50653;47.810;13.022;2022-11-15T09:11:41;2.63;;;2.20;;
14396;SDS011;50653;47.810;13.022;2022-11-15T09:14:25;3.27;;;3.07;;
14396;SDS011;50653;47.810;13.022;2022-11-15T09:17:09;8.63;;;3.50;;
14396;SDS011;50653;47.810;13.022;2022-11-15T09:19:54;2.87;;;2.60;;
14396;SDS011;50653;47.810;13.022;2022-11-15T09:22:38;6.90;;;2.90;;
14396;SDS011;50653;47.810;13.022;2022-11-15T09:25:22;6.27;;;3.10;;
14396;SDS011;50653;47.810;13.022;2022-11-15T09:28:06;3.43;;;3.13;;
14396;SDS011;50653;47.810;13.022;2022-11-15T09:30:51;2.30;;;2.20;;
14396;SDS011;50653;47.810;13.022;2022-11-15T09:33:39;17.27;;;5.10;;
14396;SDS011;50653;47.810;13.022;2022-11-15T09:36:23;2.33;;;2.13;;
14396;SDS011;50653;47.810;13.022;2022-11-15T09:39:07;3.60;;;2.60;;
14396;SDS011;50653;47.810;13.022;2022-11-15T09:41:57;1.93;;;1.83;;
14396;SDS011;50653;47.810;13.022;2022-11-15T09:50:49;3.67;;;2.90;;
14396;SDS011;50653;47.810;13.022;2022-11-15T09:53:41;2.60;;;2.40;;
14396;SDS011;50653;47.810;13.022;2022-11-15T09:56:15;4.80;;;2.50;;
14396;SDS011;50653;47.810;13.022;2022-11-15T09:58:54;2.70;;;2.53;;
14396;SDS011;50653;47.810;13.022;2022-11-15T10:04:33;1.90;;;1.80;;
14396;SDS011;50653;47.810;13.022;2022-11-15T10:07:15;2.60;;;2.40;;
14396;SDS011;50653;47.810;13.022;2022-11-15T10:09:51;4.33;;;2.80;;
14396;SDS011;50653;47.810;13.022;2022-11-15T10:12:33;2.97;;;2.77;;
14396;SDS011;50653;47.810;13.022;2022-11-15T10:15:03;2.80;;;2.60;;
14396;SDS011;50653;47.810;13.022;2022-11-15T10:20:21;4.03;;;3.60;;
14396;SDS011;50653;47.810;13.022;2022-11-15T10:22:50;4.60;;;3.20;;
14396;SDS011;50653;47.810;13.022;2022-11-15T10:25:23;11.83;;;4.67;;
14396;SDS011;50653;47.810;13.022;2022-11-15T10:30:42;4.27;;;2.70;;
14396;SDS011;50653;47.810;13.022;2022-11-15T10:41:16;4.93;;;3.53;;
14396;SDS011;50653;47.810;13.022;2022-11-15T10:43:44;3.60;;;2.77;;
14396;SDS011;50653;47.810;13.022;2022-11-15T10:46:18;2.87;;;2.53;;
14396;SDS011;50653;47.810;13.022;2022-11-15T10:48:46;2.30;;;2.10;;
14396;SDS011;50653;47.810;13.022;2022-11-15T10:54:09;11.00;;;2.40;;
14396;SDS011;50653;47.810;13.022;2022-11-15T10:56:37;2.47;;;2.37;;
14396;SDS011;50653;47.810;13.022;2022-11-15T10:59:05;3.00;;;2.63;;
14396;SDS011;50653;47.810;13.022;2022-11-15T11:01:45;2.13;;;2.03;;
14396;SDS011;50653;47.810;13.022;2022-11-15T11:04:12;2.00;;;1.77;;
14396;SDS011;50653;47.810;13.022;2022-11-15T11:06:54;1.63;;;1.53;;
14396;SDS011;50653;47.810;13.022;2022-11-15T11:09:22;4.43;;;2.13;;
14396;SDS011;50653;47.810;13.022;2022-11-15T11:12:02;2.27;;;2.13;;
14396;SDS011;50653;47.810;13.022;2022-11-15T11:14:30;2.40;;;2.27;;
14396;SDS011;50653;47.810;13.022;2022-11-15T11:17:02;2.57;;;2.37;;
14396;SDS011;50653;47.810;13.022;2022-11-15T11:19:46;3.80;;;2.77;;
14396;SDS011;50653;47.810;13.022;2022-11-15T11:33:30;6.80;;;2.43;;
14396;SDS011;50653;47.810;13.022;2022-11-15T11:38:50;2.40;;;2.30;;
14396;SDS011;50653;47.810;13.022;2022-11-15T11:41:40;3.70;;;3.40;;
14396;SDS011;50653;47.810;13.022;2022-11-15T11:46:48;6.80;;;3.80;;
14396;SDS011;50653;47.810;13.022;2022-11-15T11:49:23;3.13;;;2.90;;
14396;SDS011;50653;47.810;13.022;2022-11-15T11:52:12;2.33;;;2.20;;
14396;SDS011;50653;47.810;13.022;2022-11-15T11:57:40;3.77;;;3.57;;
14396;SDS011;50653;47.810;13.022;2022-11-15T12:00:20;3.67;;;3.37;;
14396;SDS011;50653;47.810;13.022;2022-11-15T12:02:50;3.27;;;2.90;;
14396;SDS011;50653;47.810;13.022;2022-11-15T12:05:32;4.40;;;2.90;;
14396;SDS011;50653;47.810;13.022;2022-11-15T12:08:22;7.03;;;3.60;;
14396;SDS011;50653;47.810;13.022;2022-11-15T12:11:28;35.70;;;9.07;;
14396;SDS011;50653;47.810;13.022;2022-11-15T12:13:58;8.50;;;4.93;;
14396;SDS011;50653;47.810;13.022;2022-11-15T12:16:26;4.57;;;3.97;;
14396;SDS011;50653;47.810;13.022;2022-11-15T12:18:54;6.30;;;3.30;;
14396;SDS011;50653;47.810;13.022;2022-11-15T12:24:12;5.40;;;3.10;;
14396;SDS011;50653;47.810;13.022;2022-11-15T12:26:47;4.13;;;2.90;;
14396;SDS011;50653;47.810;13.022;2022-11-15T12:29:33;5.10;;;3.50;;
14396;SDS011;50653;47.810;13.022;2022-11-15T12:32:02;4.33;;;4.03;;
14396;SDS011;50653;47.810;13.022;2022-11-15T12:43:00;3.90;;;3.60;;
14396;SDS011;50653;47.810;13.022;2022-11-15T12:45:32;6.17;;;5.30;;
14396;SDS011;50653;47.810;13.022;2022-11-15T12:48:44;4.70;;;4.13;;
14396;SDS011;50653;47.810;13.022;2022-11-15T12:51:00;4.30;;;4.00;;
14396;SDS011;50653;47.810;13.022;2022-11-15T12:53:31;4.87;;;3.67;;
14396;SDS011;50653;47.810;13.022;2022-11-15T13:06:42;8.80;;;4.40;;
14396;SDS011;50653;47.810;13.022;2022-11-15T13:17:33;7.00;;;4.00;;
14396;SDS011;50653;47.810;13.022;2022-11-15T13:22:42;4.57;;;4.17;;
14396;SDS011;50653;47.810;13.022;2022-11-15T13:30:39;5.70;;;4.90;;
14396;SDS011;50653;47.810;13.022;2022-11-15T13:33:16;6.07;;;5.57;;
14396;SDS011;50653;47.810;13.022;2022-11-15T13:35:51;6.37;;;5.87;;
14396;SDS011;50653;47.810;13.022;2022-11-15T13:38:24;6.57;;;6.07;;
14396;SDS011;50653;47.810;13.022;2022-11-15T13:40:56;6.90;;;6.40;;
14396;SDS011;50653;47.810;13.022;2022-11-15T13:46:09;8.17;;;7.47;;
14396;SDS011;50653;47.810;13.022;2022-11-15T13:48:41;8.07;;;7.37;;
14396;SDS011;50653;47.810;13.022;2022-11-15T13:54:07;7.60;;;6.90;;
14396;SDS011;50653;47.810;13.022;2022-11-15T13:56:51;7.90;;;7.20;;
14396;SDS011;50653;47.810;13.022;2022-11-15T14:02:21;8.20;;;7.40;;
14396;SDS011;50653;47.810;13.022;2022-11-15T14:04:55;7.03;;;6.53;;
14396;SDS011;50653;47.810;13.022;2022-11-15T14:07:25;7.80;;;7.10;;
14396;SDS011;50653;47.810;13.022;2022-11-15T14:09:55;6.30;;;5.80;;
14396;SDS011;50653;47.810;13.022;2022-11-15T14:14:56;7.27;;;6.67;;
14396;SDS011;50653;47.810;13.022;2022-11-15T14:19:55;7.43;;;6.83;;
14396;SDS011;50653;47.810;13.022;2022-11-15T14:22:25;7.67;;;7.10;;
14396;SDS011;50653;47.810;13.022;2022-11-15T14:27:44;7.33;;;6.80;;
14396;SDS011;50653;47.810;13.022;2022-11-15T14:30:35;8.80;;;8.00;;
14396;SDS011;50653;47.810;13.022;2022-11-15T14:33:00;7.57;;;7.07;;
14396;SDS011;50653;47.810;13.022;2022-11-15T14:35:27;7.33;;;6.77;;
14396;SDS011;50653;47.810;13.022;2022-11-15T14:37:53;8.27;;;7.47;;
14396;SDS011;50653;47.810;13.022;2022-11-15T14:40:19;8.63;;;7.77;;
14396;SDS011;50653;47.810;13.022;2022-11-15T14:42:47;10.30;;;7.87;;
14396;SDS011;50653;47.810;13.022;2022-11-15T14:47:41;9.53;;;8.60;;
14396;SDS011;50653;47.810;13.022;2022-11-15T14:50:11;8.70;;;8.00;;
14396;SDS011;50653;47.810;13.022;2022-11-15T14:52:41;7.87;;;7.17;;
14396;SDS011;50653;47.810;13.022;2022-11-15T14:55:24;8.53;;;7.77;;
14396;SDS011;50653;47.810;13.022;2022-11-15T14:57:53;8.27;;;7.57;;
14396;SDS011;50653;47.810;13.022;2022-11-15T15:00:20;8.93;;;8.20;;
14396;SDS011;50653;47.810;13.022;2022-11-15T15:02:46;7.77;;;7.17;;
14396;SDS011;50653;47.810;13.022;2022-11-15T15:05:14;9.67;;;8.80;;
14396;SDS011;50653;47.810;13.022;2022-11-15T15:07:45;7.17;;;6.67;;
14396;SDS011;50653;47.810;13.022;2022-11-15T15:10:11;8.03;;;7.30;;
14396;SDS011;50653;47.810;13.022;2022-11-15T15:12:38;11.93;;;8.53;;
14396;SDS011;50653;47.810;13.022;2022-11-15T15:15:04;8.03;;;7.20;;
14396;SDS011;50653;47.810;13.022;2022-11-15T15:17:30;8.57;;;7.83;;
14396;SDS011;50653;47.810;13.022;2022-11-15T15:19:56;8.47;;;7.53;;
14396;SDS011;50653;47.810;13.022;2022-11-15T15:22:21;9.33;;;8.43;;
14396;SDS011;50653;47.810;13.022;2022-11-15T15:24:50;8.20;;;7.40;;
14396;SDS011;50653;47.810;13.022;2022-11-15T15:27:16;8.43;;;7.63;;
14396;SDS011;50653;47.810;13.022;2022-11-15T15:29:41;9.07;;;8.20;;
14396;SDS011;50653;47.810;13.022;2022-11-15T15:32:07;8.70;;;7.90;;
14396;SDS011;50653;47.810;13.022;2022-11-15T15:34:34;9.77;;;9.00;;
14396;SDS011;50653;47.810;13.022;2022-11-15T15:37:06;10.07;;;8.90;;
14396;SDS011;50653;47.810;13.022;2022-11-15T15:39:53;12.17;;;10.97;;
14396;SDS011;50653;47.810;13.022;2022-11-15T15:42:20;17.93;;;10.73;;
14396;SDS011;50653;47.810;13.022;2022-11-15T15:44:47;10.97;;;9.43;;
14396;SDS011;50653;47.810;13.022;2022-11-15T15:47:15;10.10;;;9.10;;
14396;SDS011;50653;47.810;13.022;2022-11-15T15:49:45;20.33;;;9.70;;
14396;SDS011;50653;47.810;13.022;2022-11-15T15:52:12;12.53;;;8.73;;
14396;SDS011;50653;47.810;13.022;2022-11-15T15:54:37;10.70;;;9.50;;
14396;SDS011;50653;47.810;13.022;2022-11-15T15:57:04;19.03;;;8.97;;
14396;SDS011;50653;47.810;13.022;2022-11-15T15:59:30;12.70;;;9.30;;
14396;SDS011;50653;47.810;13.022;2022-11-15T16:01:56;10.23;;;9.00;;
14396;SDS011;50653;47.810;13.022;2022-11-15T16:04:22;16.67;;;9.80;;
14396;SDS011;50653;47.810;13.022;2022-11-15T16:06:48;14.23;;;9.90;;
14396;SDS011;50653;47.810;13.022;2022-11-15T16:09:17;12.53;;;10.50;;
14396;SDS011;50653;47.810;13.022;2022-11-15T16:11:44;11.20;;;10.20;;
14396;SDS011;50653;47.810;13.022;2022-11-15T16:14:10;12.97;;;10.07;;
14396;SDS011;50653;47.810;13.022;2022-11-15T16:16:36;15.87;;;10.67;;
14396;SDS011;50653;47.810;13.022;2022-11-15T16:19:03;13.23;;;10.07;;
14396;SDS011;50653;47.810;13.022;2022-11-15T16:21:29;10.80;;;9.73;;
14396;SDS011;50653;47.810;13.022;2022-11-15T16:23:55;10.93;;;9.83;;
14396;SDS011;50653;47.810;13.022;2022-11-15T16:26:21;14.80;;;10.30;;
14396;SDS011;50653;47.810;13.022;2022-11-15T16:28:53;11.63;;;10.53;;
14396;SDS011;50653;47.810;13.022;2022-11-15T16:31:19;12.90;;;9.93;;
14396;SDS011;50653;47.810;13.022;2022-11-15T16:33:47;21.87;;;11.10;;
14396;SDS011;50653;47.810;13.022;2022-11-15T16:36:18;18.43;;;10.80;;
14396;SDS011;50653;47.810;13.022;2022-11-15T16:38:46;14.63;;;11.83;;
14396;SDS011;50653;47.810;13.022;2022-11-15T16:41:12;15.27;;;11.67;;
14396;SDS011;50653;47.810;13.022;2022-11-15T16:43:38;19.63;;;11.37;;
14396;SDS011;50653;47.810;13.022;2022-11-15T16:46:06;14.23;;;10.87;;
14396;SDS011;50653;47.810;13.022;2022-11-15T16:48:37;20.87;;;15.97;;
14396;SDS011;50653;47.810;13.022;2022-11-15T16:51:04;19.67;;;11.53;;
14396;SDS011;50653;47.810;13.022;2022-11-15T16:53:30;13.00;;;11.27;;
14396;SDS011;50653;47.810;13.022;2022-11-15T16:55:55;20.80;;;12.87;;
14396;SDS011;50653;47.810;13.022;2022-11-15T16:58:21;20.23;;;12.47;;
14396;SDS011;50653;47.810;13.022;2022-11-15T17:00:51;14.87;;;11.40;;
14396;SDS011;50653;47.810;13.022;2022-11-15T17:03:21;16.97;;;12.40;;
14396;SDS011;50653;47.810;13.022;2022-11-15T17:05:47;17.20;;;12.13;;
14396;SDS011;50653;47.810;13.022;2022-11-15T17:08:14;21.50;;;12.50;;
14396;SDS011;50653;47.810;13.022;2022-11-15T17:10:44;16.70;;;11.60;;
14396;SDS011;50653;47.810;13.022;2022-11-15T17:13:13;13.73;;;11.13;;
14396;SDS011;50653;47.810;13.022;2022-11-15T17:15:39;20.43;;;12.40;;
14396;SDS011;50653;47.810;13.022;2022-11-15T17:18:04;22.53;;;11.87;;
14396;SDS011;50653;47.810;13.022;2022-11-15T17:20:30;18.87;;;12.73;;
14396;SDS011;50653;47.810;13.022;2022-11-15T17:22:56;27.67;;;12.73;;
14396;SDS011;50653;47.810;13.022;2022-11-15T17:25:22;14.73;;;11.87;;
14396;SDS011;50653;47.810;13.022;2022-11-15T17:27:48;13.77;;;12.27;;
14396;SDS011;50653;47.810;13.022;2022-11-15T17:30:14;17.80;;;12.83;;
14396;SDS011;50653;47.810;13.022;2022-11-15T17:32:40;16.83;;;11.80;;
14396;SDS011;50653;47.810;13.022;2022-11-15T17:35:07;24.07;;;14.00;;
14396;SDS011;50653;47.810;13.022;2022-11-15T17:37:35;31.57;;;21.30;;
14396;SDS011;50653;47.810;13.022;2022-11-15T17:40:00;23.73;;;14.53;;
14396;SDS011;50653;47.810;13.022;2022-11-15T17:42:26;23.57;;;13.67;;
14396;SDS011;50653;47.810;13.022;2022-11-15T17:44:52;24.10;;;13.77;;
14396;SDS011;50653;47.810;13.022;2022-11-15T17:47:18;17.00;;;13.67;;
14396;SDS011;50653;47.810;13.022;2022-11-15T17:49:43;21.93;;;14.80;;
14396;SDS011;50653;47.810;13.022;2022-11-15T17:52:09;19.00;;;15.23;;
14396;SDS011;50653;47.810;13.022;2022-11-15T17:54:35;24.73;;;16.17;;
14396;SDS011;50653;47.810;13.022;2022-11-15T17:57:01;23.67;;;17.13;;
14396;SDS011;50653;47.810;13.022;2022-11-15T17:59:26;24.33;;;18.33;;
14396;SDS011;50653;47.810;13.022;2022-11-15T18:01:52;26.90;;;18.33;;